sensor_id;sensor_type;location;lat;lon;timestamp;pressure;altitude;pressure_sealevel;temperature;humidity
57791;BME280;43621;51.798;21.588;2023-04-29T00:01:23;99988.34;;;6.38;48.76
57791;BME280;43621;51.798;21.588;2023-04-29T00:05:24;99981.98;;;6.33;48.37
57791;BME280;43621;51.798;21.588;2023-04-29T00:09:25;99981.55;;;6.29;48.23
57791;BME280;43621;51.798;21.588;2023-04-29T00:13:26;99977.30;;;6.26;48.52
57791;BME280;43621;51.798;21.588;2023-04-29T00:17:27;99972.46;;;6.21;48.84
57791;BME280;43621;51.798;21.588;2023-04-29T00:21:28;99973.20;;;6.16;48.86
57791;BME280;43621;51.798;21.588;2023-04-29T00:25:30;99974.56;;;6.14;48.82
57791;BME280;43621;51.798;21.588;2023-04-29T00:29:31;99975.78;;;6.11;49.31
57791;BME280;43621;51.798;21.588;2023-04-29T00:33:32;99974.14;;;6.07;48.90
57791;BME280;43621;51.798;21.588;2023-04-29T00:37:33;99973.87;;;6.06;48.56
57791;BME280;43621;51.798;21.588;2023-04-29T00:41:34;99968.35;;;6.03;49.53
57791;BME280;43621;51.798;21.588;2023-04-29T00:45:36;99963.42;;;6.00;49.65
57791;BME280;43621;51.798;21.588;2023-04-29T00:49:38;99958.21;;;5.98;49.82
57791;BME280;43621;51.798;21.588;2023-04-29T00:53:39;99956.66;;;5.93;49.55
57791;BME280;43621;51.798;21.588;2023-04-29T00:57:41;99952.55;;;5.90;49.51
57791;BME280;43621;51.798;21.588;2023-04-29T01:01:42;99952.42;;;5.89;49.44
57791;BME280;43621;51.798;21.588;2023-04-29T01:05:47;99950.02;;;5.87;50.20
57791;BME280;43621;51.798;21.588;2023-04-29T01:10:09;99947.08;;;5.81;50.32
57791;BME280;43621;51.798;21.588;2023-04-29T01:14:10;99945.27;;;5.78;50.16
57791;BME280;43621;51.798;21.588;2023-04-29T01:18:25;99949.01;;;5.76;50.25
57791;BME280;43621;51.798;21.588;2023-04-29T01:22:27;99946.00;;;5.75;50.65
57791;BME280;43621;51.798;21.588;2023-04-29T01:26:31;99947.83;;;5.71;50.57
57791;BME280;43621;51.798;21.588;2023-04-29T01:43:51;99945.26;;;5.64;50.98
57791;BME280;43621;51.798;21.588;2023-04-29T01:47:53;99947.74;;;5.63;50.88
57791;BME280;43621;51.798;21.588;2023-04-29T01:51:57;99948.80;;;5.63;51.03
57791;BME280;43621;51.798;21.588;2023-04-29T01:55:58;99946.85;;;5.63;51.32
57791;BME280;43621;51.798;21.588;2023-04-29T01:59:59;99946.47;;;5.61;51.49
57791;BME280;43621;51.798;21.588;2023-04-29T02:04:02;99947.10;;;5.60;51.16
57791;BME280;43621;51.798;21.588;2023-04-29T02:08:04;99946.58;;;5.60;51.30
57791;BME280;43621;51.798;21.588;2023-04-29T02:12:07;99941.00;;;5.58;51.69
57791;BME280;43621;51.798;21.588;2023-04-29T02:16:13;99938.83;;;5.57;52.14
57791;BME280;43621;51.798;21.588;2023-04-29T02:20:15;99937.17;;;5.56;51.88
57791;BME280;43621;51.798;21.588;2023-04-29T02:24:16;99936.45;;;5.51;52.77
57791;BME280;43621;51.798;21.588;2023-04-29T02:28:17;99938.38;;;5.49;52.86
57791;BME280;43621;51.798;21.588;2023-04-29T02:32:18;99933.63;;;5.47;52.78
57791;BME280;43621;51.798;21.588;2023-04-29T02:36:22;99932.91;;;5.44;52.54
57791;BME280;43621;51.798;21.588;2023-04-29T02:40:24;99931.90;;;5.44;52.73
57791;BME280;43621;51.798;21.588;2023-04-29T02:44:26;99933.59;;;5.42;52.99
57791;BME280;43621;51.798;21.588;2023-04-29T02:48:28;99935.80;;;5.40;53.04
57791;BME280;43621;51.798;21.588;2023-04-29T02:52:29;99936.86;;;5.38;54.05
57791;BME280;43621;51.798;21.588;2023-04-29T02:56:30;99938.56;;;5.33;54.42
57791;BME280;43621;51.798;21.588;2023-04-29T03:00:31;99937.41;;;5.35;53.46
57791;BME280;43621;51.798;21.588;2023-04-29T03:04:32;99938.77;;;5.36;53.60
57791;BME280;43621;51.798;21.588;2023-04-29T03:08:33;99936.80;;;5.34;53.45
57791;BME280;43621;51.798;21.588;2023-04-29T03:12:35;99928.23;;;5.38;53.55
57791;BME280;43621;51.798;21.588;2023-04-29T03:16:36;99927.92;;;5.42;53.87
57791;BME280;43621;51.798;21.588;2023-04-29T03:20:38;99928.27;;;5.47;53.23
57791;BME280;43621;51.798;21.588;2023-04-29T03:24:39;99923.27;;;5.54;52.95
57791;BME280;43621;51.798;21.588;2023-04-29T03:28:40;99924.27;;;5.62;53.17
57791;BME280;43621;51.798;21.588;2023-04-29T03:32:41;99925.59;;;5.67;52.91
57791;BME280;43621;51.798;21.588;2023-04-29T03:36:42;99925.33;;;5.73;52.99
57791;BME280;43621;51.798;21.588;2023-04-29T03:40:44;99921.87;;;5.76;52.92
57791;BME280;43621;51.798;21.588;2023-04-29T03:44:45;99921.04;;;5.80;53.09
57791;BME280;43621;51.798;21.588;2023-04-29T03:48:46;99920.33;;;5.85;53.18
57791;BME280;43621;51.798;21.588;2023-04-29T03:52:48;99917.13;;;5.93;53.04
57791;BME280;43621;51.798;21.588;2023-04-29T03:56:49;99915.42;;;5.98;53.41
57791;BME280;43621;51.798;21.588;2023-04-29T04:00:50;99914.87;;;6.00;53.45
57791;BME280;43621;51.798;21.588;2023-04-29T04:04:51;99911.32;;;6.06;53.47
57791;BME280;43621;51.798;21.588;2023-04-29T04:08:54;99909.84;;;6.15;53.46
57791;BME280;43621;51.798;21.588;2023-04-29T04:12:55;99909.63;;;6.25;53.32
57791;BME280;43621;51.798;21.588;2023-04-29T04:16:56;99910.55;;;6.33;53.83
57791;BME280;43621;51.798;21.588;2023-04-29T04:20:57;99911.98;;;6.41;53.72
57791;BME280;43621;51.798;21.588;2023-04-29T04:24:58;99910.77;;;6.56;53.64
57791;BME280;43621;51.798;21.588;2023-04-29T04:28:59;99911.65;;;6.76;53.17
57791;BME280;43621;51.798;21.588;2023-04-29T04:33:00;99907.30;;;6.96;52.81
57791;BME280;43621;51.798;21.588;2023-04-29T04:37:02;99908.20;;;7.15;52.72
57791;BME280;43621;51.798;21.588;2023-04-29T04:41:05;99910.19;;;7.34;52.46
57791;BME280;43621;51.798;21.588;2023-04-29T04:45:08;99910.27;;;7.55;52.18
57791;BME280;43621;51.798;21.588;2023-04-29T04:49:11;99906.16;;;7.71;51.95
57791;BME280;43621;51.798;21.588;2023-04-29T04:53:12;99903.31;;;7.91;51.61
57791;BME280;43621;51.798;21.588;2023-04-29T04:57:13;99899.74;;;8.16;51.27
57791;BME280;43621;51.798;21.588;2023-04-29T05:01:14;99896.54;;;8.40;50.90
57791;BME280;43621;51.798;21.588;2023-04-29T05:05:15;99890.44;;;8.69;50.38
57791;BME280;43621;51.798;21.588;2023-04-29T05:09:16;99887.84;;;8.97;49.86
57791;BME280;43621;51.798;21.588;2023-04-29T05:13:18;99887.42;;;9.26;49.47
57791;BME280;43621;51.798;21.588;2023-04-29T05:17:19;99875.59;;;9.52;48.57
57791;BME280;43621;51.798;21.588;2023-04-29T05:21:20;99876.38;;;9.70;48.12
57791;BME280;43621;51.798;21.588;2023-04-29T05:25:21;99875.54;;;9.97;47.92
57791;BME280;43621;51.798;21.588;2023-04-29T05:29:22;99873.08;;;10.26;47.27
57791;BME280;43621;51.798;21.588;2023-04-29T05:33:23;99875.79;;;10.55;46.66
57791;BME280;43621;51.798;21.588;2023-04-29T05:37:24;99873.45;;;10.80;45.70
57791;BME280;43621;51.798;21.588;2023-04-29T05:41:30;99877.44;;;11.21;45.28
57791;BME280;43621;51.798;21.588;2023-04-29T05:45:31;99884.20;;;11.67;44.93
57791;BME280;43621;51.798;21.588;2023-04-29T05:49:32;99887.53;;;12.18;43.38
57791;BME280;43621;51.798;21.588;2023-04-29T05:53:33;99884.89;;;12.65;42.46
57791;BME280;43621;51.798;21.588;2023-04-29T05:57:35;99878.29;;;13.16;41.50
57791;BME280;43621;51.798;21.588;2023-04-29T06:01:36;99880.06;;;13.54;40.94
57791;BME280;43621;51.798;21.588;2023-04-29T06:05:38;99877.50;;;14.28;40.13
57791;BME280;43621;51.798;21.588;2023-04-29T06:09:39;99878.00;;;15.05;38.71
57791;BME280;43621;51.798;21.588;2023-04-29T06:13:42;99883.17;;;15.20;36.80
57791;BME280;43621;51.798;21.588;2023-04-29T06:17:44;99882.06;;;15.69;36.79
57791;BME280;43621;51.798;21.588;2023-04-29T06:21:45;99880.54;;;16.66;36.01
57791;BME280;43621;51.798;21.588;2023-04-29T06:25:46;99878.58;;;17.98;34.87
57791;BME280;43621;51.798;21.588;2023-04-29T06:29:47;99876.71;;;19.63;33.29
57791;BME280;43621;51.798;21.588;2023-04-29T06:33:48;99878.36;;;21.83;30.46
57791;BME280;43621;51.798;21.588;2023-04-29T06:37:49;99877.30;;;23.41;29.36
57791;BME280;43621;51.798;21.588;2023-04-29T06:41:52;99874.36;;;25.42;25.96
57791;BME280;43621;51.798;21.588;2023-04-29T06:45:53;99873.74;;;27.58;23.55
57791;BME280;43621;51.798;21.588;2023-04-29T06:49:54;99866.23;;;28.88;22.11
57791;BME280;43621;51.798;21.588;2023-04-29T06:53:55;99866.33;;;30.41;21.29
57791;BME280;43621;51.798;21.588;2023-04-29T06:57:56;99869.30;;;30.87;19.37
57791;BME280;43621;51.798;21.588;2023-04-29T07:01:57;99869.61;;;31.04;18.28
57791;BME280;43621;51.798;21.588;2023-04-29T07:05:58;99874.58;;;30.08;17.44
57791;BME280;43621;51.798;21.588;2023-04-29T07:10:00;99871.17;;;27.81;18.01
57791;BME280;43621;51.798;21.588;2023-04-29T07:14:01;99865.73;;;25.56;19.55
57791;BME280;43621;51.798;21.588;2023-04-29T07:18:05;99864.95;;;23.85;21.10
57791;BME280;43621;51.798;21.588;2023-04-29T07:22:06;99864.83;;;22.56;22.57
57791;BME280;43621;51.798;21.588;2023-04-29T07:26:13;99862.01;;;21.65;23.61
57791;BME280;43621;51.798;21.588;2023-04-29T07:30:15;99863.75;;;20.79;24.64
57791;BME280;43621;51.798;21.588;2023-04-29T07:34:16;99865.91;;;20.46;25.48
57791;BME280;43621;51.798;21.588;2023-04-29T07:38:17;99862.83;;;21.60;25.49
57791;BME280;43621;51.798;21.588;2023-04-29T07:42:19;99866.05;;;24.12;23.06
57791;BME280;43621;51.798;21.588;2023-04-29T07:46:20;99860.11;;;26.00;20.99
57791;BME280;43621;51.798;21.588;2023-04-29T07:50:21;99859.87;;;27.59;19.53
57791;BME280;43621;51.798;21.588;2023-04-29T07:54:22;99858.65;;;29.00;18.70
57791;BME280;43621;51.798;21.588;2023-04-29T07:58:23;99853.73;;;31.35;17.92
57791;BME280;43621;51.798;21.588;2023-04-29T08:02:24;99863.17;;;32.82;15.59
57791;BME280;43621;51.798;21.588;2023-04-29T08:06:25;99855.86;;;33.34;14.92
57791;BME280;43621;51.798;21.588;2023-04-29T08:10:26;99853.89;;;34.81;14.00
57791;BME280;43621;51.798;21.588;2023-04-29T08:14:28;99865.09;;;36.44;13.19
57791;BME280;43621;51.798;21.588;2023-04-29T08:18:29;99863.34;;;36.93;12.15
57791;BME280;43621;51.798;21.588;2023-04-29T08:22:30;99866.01;;;37.15;11.82
57791;BME280;43621;51.798;21.588;2023-04-29T08:26:31;99863.90;;;37.47;11.99
57791;BME280;43621;51.798;21.588;2023-04-29T08:30:36;99860.89;;;37.89;10.99
57791;BME280;43621;51.798;21.588;2023-04-29T08:34:38;99856.45;;;38.26;10.86
57791;BME280;43621;51.798;21.588;2023-04-29T08:38:39;99853.61;;;39.21;10.67
57791;BME280;43621;51.798;21.588;2023-04-29T08:42:41;99854.00;;;39.72;10.29
57791;BME280;43621;51.798;21.588;2023-04-29T08:46:45;99847.83;;;39.33;10.12
57791;BME280;43621;51.798;21.588;2023-04-29T08:50:47;99857.91;;;39.70;10.01
57791;BME280;43621;51.798;21.588;2023-04-29T08:54:49;99851.32;;;39.40;9.99
57791;BME280;43621;51.798;21.588;2023-04-29T08:58:50;99846.73;;;39.02;10.52
57791;BME280;43621;51.798;21.588;2023-04-29T09:02:56;99848.00;;;39.85;10.23
57791;BME280;43621;51.798;21.588;2023-04-29T09:06:58;99851.34;;;39.90;9.53
57791;BME280;43621;51.798;21.588;2023-04-29T09:11:07;99846.58;;;39.98;9.45
57791;BME280;43621;51.798;21.588;2023-04-29T09:15:12;99846.34;;;40.53;9.40
57791;BME280;43621;51.798;21.588;2023-04-29T09:19:34;99845.97;;;41.26;9.24
57791;BME280;43621;51.798;21.588;2023-04-29T09:23:36;99843.86;;;41.66;8.75
57791;BME280;43621;51.798;21.588;2023-04-29T09:27:38;99843.69;;;42.11;8.44
57791;BME280;43621;51.798;21.588;2023-04-29T09:31:39;99838.95;;;41.13;8.47
57791;BME280;43621;51.798;21.588;2023-04-29T09:35:41;99830.69;;;41.56;9.07
57791;BME280;43621;51.798;21.588;2023-04-29T09:39:43;99835.30;;;41.18;8.43
57791;BME280;43621;51.798;21.588;2023-04-29T09:43:44;99836.67;;;40.26;8.94
57791;BME280;43621;51.798;21.588;2023-04-29T09:47:45;99832.11;;;39.50;9.20
57791;BME280;43621;51.798;21.588;2023-04-29T09:52:03;99820.92;;;39.68;9.36
57791;BME280;43621;51.798;21.588;2023-04-29T09:56:04;99815.83;;;39.70;9.11
57791;BME280;43621;51.798;21.588;2023-04-29T10:00:06;99814.77;;;39.19;9.34
57791;BME280;43621;51.798;21.588;2023-04-29T10:04:09;99806.95;;;39.27;9.38
57791;BME280;43621;51.798;21.588;2023-04-29T10:08:12;99803.88;;;39.29;9.56
57791;BME280;43621;51.798;21.588;2023-04-29T10:12:17;99799.09;;;40.16;9.21
57791;BME280;43621;51.798;21.588;2023-04-29T10:16:27;99802.84;;;40.20;8.93
57791;BME280;43621;51.798;21.588;2023-04-29T10:20:29;99797.80;;;40.20;9.06
57791;BME280;43621;51.798;21.588;2023-04-29T10:24:31;99792.50;;;40.63;8.99
57791;BME280;43621;51.798;21.588;2023-04-29T10:28:36;99791.05;;;40.29;8.67
57791;BME280;43621;51.798;21.588;2023-04-29T10:32:40;99791.74;;;39.12;9.25
57791;BME280;43621;51.798;21.588;2023-04-29T10:36:42;99786.29;;;39.13;9.51
57791;BME280;43621;51.798;21.588;2023-04-29T10:40:44;99786.18;;;39.50;9.27
57791;BME280;43621;51.798;21.588;2023-04-29T10:49:21;99776.64;;;39.35;9.36
57791;BME280;43621;51.798;21.588;2023-04-29T10:53:22;99779.06;;;39.04;9.47
57791;BME280;43621;51.798;21.588;2023-04-29T10:57:23;99762.73;;;38.66;9.96
57791;BME280;43621;51.798;21.588;2023-04-29T11:01:40;99770.54;;;37.11;10.74
57791;BME280;43621;51.798;21.588;2023-04-29T11:05:44;99769.12;;;33.87;12.11
57791;BME280;43621;51.798;21.588;2023-04-29T11:09:49;99766.35;;;31.07;13.86
57791;BME280;43621;51.798;21.588;2023-04-29T11:13:51;99760.81;;;29.00;15.58
57791;BME280;43621;51.798;21.588;2023-04-29T11:17:57;99752.21;;;26.89;17.80
57791;BME280;43621;51.798;21.588;2023-04-29T11:22:13;99749.05;;;25.39;19.14
57791;BME280;43621;51.798;21.588;2023-04-29T11:26:18;99743.35;;;24.29;20.41
57791;BME280;43621;51.798;21.588;2023-04-29T11:30:19;99752.84;;;23.48;21.39
57791;BME280;43621;51.798;21.588;2023-04-29T11:34:24;99751.35;;;22.80;22.27
57791;BME280;43621;51.798;21.588;2023-04-29T11:38:29;99743.36;;;22.32;22.86
57791;BME280;43621;51.798;21.588;2023-04-29T11:42:35;99739.09;;;22.24;23.36
57791;BME280;43621;51.798;21.588;2023-04-29T11:46:40;99744.41;;;22.22;23.67
57791;BME280;43621;51.798;21.588;2023-04-29T11:50:41;99742.39;;;22.22;23.90
57791;BME280;43621;51.798;21.588;2023-04-29T11:54:42;99738.60;;;22.09;24.51
57791;BME280;43621;51.798;21.588;2023-04-29T11:58:43;99731.20;;;21.91;24.50
57791;BME280;43621;51.798;21.588;2023-04-29T12:02:45;99735.98;;;21.80;24.92
57791;BME280;43621;51.798;21.588;2023-04-29T12:06:50;99733.86;;;21.64;25.07
57791;BME280;43621;51.798;21.588;2023-04-29T12:10:57;99728.89;;;21.52;25.31
57791;BME280;43621;51.798;21.588;2023-04-29T12:14:58;99723.91;;;21.53;25.43
57791;BME280;43621;51.798;21.588;2023-04-29T12:19:01;99721.00;;;21.68;25.51
57791;BME280;43621;51.798;21.588;2023-04-29T12:23:13;99713.92;;;21.84;25.49
57791;BME280;43621;51.798;21.588;2023-04-29T12:27:15;99720.53;;;21.70;25.97
57791;BME280;43621;51.798;21.588;2023-04-29T12:31:16;99707.83;;;21.50;25.87
57791;BME280;43621;51.798;21.588;2023-04-29T12:35:17;99707.21;;;21.06;26.47
57791;BME280;43621;51.798;21.588;2023-04-29T12:39:18;99704.09;;;20.50;27.24
57791;BME280;43621;51.798;21.588;2023-04-29T12:43:25;99703.73;;;19.99;27.78
57791;BME280;43621;51.798;21.588;2023-04-29T12:47:31;99701.39;;;19.63;28.63
57791;BME280;43621;51.798;21.588;2023-04-29T12:51:34;99689.59;;;19.78;28.77
57791;BME280;43621;51.798;21.588;2023-04-29T12:55:37;99681.83;;;20.14;28.66
57791;BME280;43621;51.798;21.588;2023-04-29T12:59:38;99686.16;;;20.51;28.31
57791;BME280;43621;51.798;21.588;2023-04-29T13:03:42;99683.13;;;20.68;28.15
57791;BME280;43621;51.798;21.588;2023-04-29T13:07:43;99682.83;;;20.83;28.06
57791;BME280;43621;51.798;21.588;2023-04-29T13:11:44;99682.59;;;20.90;27.91
57791;BME280;43621;51.798;21.588;2023-04-29T13:15:45;99688.45;;;20.60;27.86
57791;BME280;43621;51.798;21.588;2023-04-29T13:19:47;99674.58;;;20.05;28.71
57791;BME280;43621;51.798;21.588;2023-04-29T13:23:48;99667.04;;;19.94;28.75
57791;BME280;43621;51.798;21.588;2023-04-29T13:27:50;99665.77;;;20.22;28.87
57791;BME280;43621;51.798;21.588;2023-04-29T13:31:51;99662.06;;;20.15;28.94
57791;BME280;43621;51.798;21.588;2023-04-29T13:35:52;99656.96;;;20.00;28.75
57791;BME280;43621;51.798;21.588;2023-04-29T13:39:53;99655.77;;;19.90;28.79
57791;BME280;43621;51.798;21.588;2023-04-29T13:43:54;99649.91;;;19.92;28.95
57791;BME280;43621;51.798;21.588;2023-04-29T13:47:55;99659.70;;;20.17;29.18
57791;BME280;43621;51.798;21.588;2023-04-29T13:51:56;99652.51;;;20.11;28.98
57791;BME280;43621;51.798;21.588;2023-04-29T13:55:58;99648.41;;;19.88;29.02
57791;BME280;43621;51.798;21.588;2023-04-29T13:59:59;99652.58;;;19.89;29.20
57791;BME280;43621;51.798;21.588;2023-04-29T14:04:00;99652.95;;;19.93;29.57
57791;BME280;43621;51.798;21.588;2023-04-29T14:08:01;99651.14;;;19.81;29.39
57791;BME280;43621;51.798;21.588;2023-04-29T14:12:02;99654.34;;;19.68;29.58
57791;BME280;43621;51.798;21.588;2023-04-29T14:16:03;99652.73;;;19.52;29.73
57791;BME280;43621;51.798;21.588;2023-04-29T14:20:07;99655.01;;;19.36;30.28
57791;BME280;43621;51.798;21.588;2023-04-29T14:24:08;99653.50;;;19.18;30.47
57791;BME280;43621;51.798;21.588;2023-04-29T14:28:09;99655.01;;;19.16;30.32
57791;BME280;43621;51.798;21.588;2023-04-29T14:32:11;99652.67;;;19.17;30.57
57791;BME280;43621;51.798;21.588;2023-04-29T14:36:12;99650.23;;;19.05;31.00
57791;BME280;43621;51.798;21.588;2023-04-29T14:40:13;99648.23;;;18.85;31.49
57791;BME280;43621;51.798;21.588;2023-04-29T14:44:14;99646.05;;;18.74;31.55
57791;BME280;43621;51.798;21.588;2023-04-29T14:48:15;99645.19;;;18.68;31.54
57791;BME280;43621;51.798;21.588;2023-04-29T14:52:16;99645.70;;;18.76;31.64
57791;BME280;43621;51.798;21.588;2023-04-29T14:56:18;99642.14;;;18.78;31.53
57791;BME280;43621;51.798;21.588;2023-04-29T15:00:19;99645.44;;;18.74;31.59
57791;BME280;43621;51.798;21.588;2023-04-29T15:04:21;99648.08;;;18.69;31.68
57791;BME280;43621;51.798;21.588;2023-04-29T15:08:23;99644.83;;;18.72;31.63
57791;BME280;43621;51.798;21.588;2023-04-29T15:12:24;99644.97;;;18.85;31.40
57791;BME280;43621;51.798;21.588;2023-04-29T15:16:25;99647.35;;;18.93;31.99
57791;BME280;43621;51.798;21.588;2023-04-29T15:20:28;99642.77;;;18.87;32.19
57791;BME280;43621;51.798;21.588;2023-04-29T15:24:29;99640.16;;;18.84;32.29
57791;BME280;43621;51.798;21.588;2023-04-29T15:28:30;99637.77;;;18.76;32.43
57791;BME280;43621;51.798;21.588;2023-04-29T15:32:31;99638.52;;;18.64;32.65
57791;BME280;43621;51.798;21.588;2023-04-29T15:36:32;99640.27;;;18.58;32.77
57791;BME280;43621;51.798;21.588;2023-04-29T15:40:34;99639.63;;;18.57;32.94
57791;BME280;43621;51.798;21.588;2023-04-29T15:44:35;99637.14;;;18.64;32.99
57791;BME280;43621;51.798;21.588;2023-04-29T15:48:36;99632.50;;;18.69;32.97
57791;BME280;43621;51.798;21.588;2023-04-29T15:52:38;99627.45;;;18.70;32.89
57791;BME280;43621;51.798;21.588;2023-04-29T15:56:39;99629.27;;;18.58;32.87
57791;BME280;43621;51.798;21.588;2023-04-29T16:00:40;99631.55;;;18.45;32.75
57791;BME280;43621;51.798;21.588;2023-04-29T16:04:42;99634.17;;;18.34;33.08
57791;BME280;43621;51.798;21.588;2023-04-29T16:08:43;99633.72;;;18.24;33.20
57791;BME280;43621;51.798;21.588;2023-04-29T16:12:44;99638.58;;;18.12;33.42
57791;BME280;43621;51.798;21.588;2023-04-29T16:16:45;99636.02;;;17.96;33.51
57791;BME280;43621;51.798;21.588;2023-04-29T16:20:46;99637.59;;;17.79;33.62
57791;BME280;43621;51.798;21.588;2023-04-29T16:24:48;99632.92;;;17.61;34.12
57791;BME280;43621;51.798;21.588;2023-04-29T16:28:49;99637.63;;;17.45;34.31
57791;BME280;43621;51.798;21.588;2023-04-29T16:32:51;99638.77;;;17.33;34.54
57791;BME280;43621;51.798;21.588;2023-04-29T16:36:52;99643.58;;;17.25;34.51
57791;BME280;43621;51.798;21.588;2023-04-29T16:40:54;99648.48;;;17.22;34.58
57791;BME280;43621;51.798;21.588;2023-04-29T16:44:55;99645.56;;;17.18;34.95
57791;BME280;43621;51.798;21.588;2023-04-29T16:48:56;99643.72;;;17.12;35.09
57791;BME280;43621;51.798;21.588;2023-04-29T16:52:58;99646.17;;;17.05;35.12
57791;BME280;43621;51.798;21.588;2023-04-29T16:56:59;99648.61;;;17.00;35.33
57791;BME280;43621;51.798;21.588;2023-04-29T17:01:01;99647.61;;;16.93;35.48
57791;BME280;43621;51.798;21.588;2023-04-29T17:05:04;99650.52;;;16.84;35.53
57791;BME280;43621;51.798;21.588;2023-04-29T17:09:06;99651.61;;;16.72;35.80
57791;BME280;43621;51.798;21.588;2023-04-29T17:13:07;99656.30;;;16.61;35.85
57791;BME280;43621;51.798;21.588;2023-04-29T17:17:08;99651.08;;;16.52;36.04
57791;BME280;43621;51.798;21.588;2023-04-29T17:21:09;99653.63;;;16.44;36.61
57791;BME280;43621;51.798;21.588;2023-04-29T17:25:10;99654.80;;;16.36;37.04
57791;BME280;43621;51.798;21.588;2023-04-29T17:29:14;99655.52;;;16.25;37.14
57791;BME280;43621;51.798;21.588;2023-04-29T17:33:15;99656.67;;;16.19;37.08
57791;BME280;43621;51.798;21.588;2023-04-29T17:37:17;99661.71;;;16.13;37.21
57791;BME280;43621;51.798;21.588;2023-04-29T17:41:24;99661.05;;;16.06;37.55
57791;BME280;43621;51.798;21.588;2023-04-29T17:45:25;99660.78;;;15.98;38.41
57791;BME280;43621;51.798;21.588;2023-04-29T17:49:26;99664.41;;;15.87;39.28
57791;BME280;43621;51.798;21.588;2023-04-29T17:53:27;99657.75;;;15.73;39.75
57791;BME280;43621;51.798;21.588;2023-04-29T17:57:29;99661.83;;;15.59;40.04
57791;BME280;43621;51.798;21.588;2023-04-29T18:01:31;99666.23;;;15.47;40.26
57791;BME280;43621;51.798;21.588;2023-04-29T18:05:32;99666.81;;;15.37;40.56
57791;BME280;43621;51.798;21.588;2023-04-29T18:09:33;99665.85;;;15.28;40.58
57791;BME280;43621;51.798;21.588;2023-04-29T18:13:34;99669.38;;;15.20;40.97
57791;BME280;43621;51.798;21.588;2023-04-29T18:17:35;99668.23;;;15.13;41.37
57791;BME280;43621;51.798;21.588;2023-04-29T18:21:36;99672.63;;;15.04;41.53
57791;BME280;43621;51.798;21.588;2023-04-29T18:25:38;99675.06;;;14.95;41.65
57791;BME280;43621;51.798;21.588;2023-04-29T18:29:39;99675.79;;;14.86;41.71
57791;BME280;43621;51.798;21.588;2023-04-29T18:33:41;99682.19;;;14.75;42.12
57791;BME280;43621;51.798;21.588;2023-04-29T18:37:42;99685.85;;;14.61;42.77
57791;BME280;43621;51.798;21.588;2023-04-29T18:41:43;99690.03;;;14.49;42.77
57791;BME280;43621;51.798;21.588;2023-04-29T18:45:44;99694.94;;;14.38;42.85
57791;BME280;43621;51.798;21.588;2023-04-29T18:49:46;99693.89;;;14.29;42.90
57791;BME280;43621;51.798;21.588;2023-04-29T18:53:48;99693.85;;;14.24;43.17
57791;BME280;43621;51.798;21.588;2023-04-29T18:57:49;99691.09;;;14.19;43.04
57791;BME280;43621;51.798;21.588;2023-04-29T19:01:50;99693.63;;;14.10;43.26
57791;BME280;43621;51.798;21.588;2023-04-29T19:05:51;99691.65;;;13.99;43.63
57791;BME280;43621;51.798;21.588;2023-04-29T19:09:52;99697.34;;;13.91;43.65
57791;BME280;43621;51.798;21.588;2023-04-29T19:13:54;99700.70;;;13.82;44.22
57791;BME280;43621;51.798;21.588;2023-04-29T19:17:55;99704.23;;;13.76;43.63
57791;BME280;43621;51.798;21.588;2023-04-29T19:21:56;99708.10;;;13.69;43.22
57791;BME280;43621;51.798;21.588;2023-04-29T19:25:57;99710.55;;;13.63;43.12
57791;BME280;43621;51.798;21.588;2023-04-29T19:29:59;99708.02;;;13.57;43.23
57791;BME280;43621;51.798;21.588;2023-04-29T19:34:00;99712.96;;;13.54;43.24
57791;BME280;43621;51.798;21.588;2023-04-29T19:38:01;99711.15;;;13.51;43.19
57791;BME280;43621;51.798;21.588;2023-04-29T19:42:03;99712.77;;;13.49;43.19
57791;BME280;43621;51.798;21.588;2023-04-29T19:46:04;99725.35;;;13.46;43.18
57791;BME280;43621;51.798;21.588;2023-04-29T19:50:05;99723.38;;;13.39;43.25
57791;BME280;43621;51.798;21.588;2023-04-29T19:54:06;99721.04;;;13.29;43.28
57791;BME280;43621;51.798;21.588;2023-04-29T19:58:08;99728.23;;;13.19;43.49
57791;BME280;43621;51.798;21.588;2023-04-29T20:02:09;99729.97;;;13.11;43.82
57791;BME280;43621;51.798;21.588;2023-04-29T20:06:10;99733.68;;;13.04;44.06
57791;BME280;43621;51.798;21.588;2023-04-29T20:10:11;99728.38;;;12.96;44.13
57791;BME280;43621;51.798;21.588;2023-04-29T20:14:13;99728.17;;;12.90;44.23
57791;BME280;43621;51.798;21.588;2023-04-29T20:18:14;99728.43;;;12.77;44.46
57791;BME280;43621;51.798;21.588;2023-04-29T20:22:15;99729.22;;;12.65;44.55
57791;BME280;43621;51.798;21.588;2023-04-29T20:26:16;99734.02;;;12.56;44.79
57791;BME280;43621;51.798;21.588;2023-04-29T20:30:17;99736.96;;;12.46;45.07
57791;BME280;43621;51.798;21.588;2023-04-29T20:34:18;99733.67;;;12.37;45.27
57791;BME280;43621;51.798;21.588;2023-04-29T20:38:19;99734.92;;;12.28;45.54
57791;BME280;43621;51.798;21.588;2023-04-29T20:42:21;99729.86;;;12.21;45.70
57791;BME280;43621;51.798;21.588;2023-04-29T20:46:22;99726.61;;;12.14;45.74
57791;BME280;43621;51.798;21.588;2023-04-29T20:50:23;99725.85;;;12.06;45.88
57791;BME280;43621;51.798;21.588;2023-04-29T20:54:24;99723.45;;;11.99;46.16
57791;BME280;43621;51.798;21.588;2023-04-29T20:58:26;99720.34;;;11.90;46.29
57791;BME280;43621;51.798;21.588;2023-04-29T21:02:27;99720.20;;;11.82;46.38
57791;BME280;43621;51.798;21.588;2023-04-29T21:06:30;99719.45;;;11.74;46.58
57791;BME280;43621;51.798;21.588;2023-04-29T21:10:32;99719.69;;;11.64;46.74
57791;BME280;43621;51.798;21.588;2023-04-29T21:14:34;99716.27;;;11.58;46.92
57791;BME280;43621;51.798;21.588;2023-04-29T21:18:36;99715.65;;;11.51;46.97
57791;BME280;43621;51.798;21.588;2023-04-29T21:22:37;99709.04;;;11.38;47.21
57791;BME280;43621;51.798;21.588;2023-04-29T21:26:38;99706.10;;;11.31;47.48